Latest Weather Observations for Sellicks Hill

IDS60801

Issued at 10:32 pm CDT Wednesday 28 January 2015 (issued every 30 minutes, with the page automatically refreshed every 10 minutes)

About weather observations | Map of weather stations | Latest weather observations for SA | Other Formats
Station Details ID: 023886 Name: MOUNT TERRIBLE RADAR Lat: -35.33 Lon: 138.50 Height: 385.7 m
Data from the previous 72 hours. | See also: Recent months for locations in South Australia
Date/Time
CDT
Temp
°C
App
Temp
°C
Dew
Point
Rel
Hum
%
Delta-T
°C
Wind Press
QNH
hPa
Press
MSL
hPa
Rain
since 9 am
mm
Dir
 
Spd
km/h
Gust
km/h
Spd
kts
Gust
kts
28/10:30pm - - - - - SSE 37 50 20 27 - - -
28/10:00pm - - - - - SSE 39 50 21 27 - - -
28/09:30pm - - - - - SSE 43 56 23 30 - - -
28/09:00pm - - - - - SSE 39 48 21 26 - - -
28/08:30pm - - - - - SSE 39 52 21 28 - - -
28/08:00pm - - - - - SSE 46 57 25 31 - - -
28/07:30pm - - - - - SSE 52 61 28 33 - - -
28/07:00pm - - - - - SSE 54 65 29 35 - - -
28/06:30pm - - - - - SSE 57 67 31 36 - - -
28/06:00pm - - - - - SSE 52 61 28 33 - - -
28/05:30pm - - - - - SSE 54 63 29 34 - - -
28/05:00pm - - - - - SSE 54 65 29 35 - - -
28/04:30pm - - - - - SSE 59 67 32 36 - - -
28/04:00pm - - - - - SSE 56 65 30 35 - - -
28/03:30pm - - - - - SSE 59 70 32 38 - - -
28/03:00pm - - - - - SSE 65 76 35 41 - - -
28/02:30pm - - - - - SSE 63 76 34 41 - - -
28/02:00pm - - - - - SSE 61 74 33 40 - - -
28/01:30pm - - - - - SSE 56 69 30 37 - - -
28/01:00pm - - - - - SSE 56 69 30 37 - - -
28/12:30pm - - - - - SSE 54 65 29 35 - - -
28/12:00pm - - - - - SSE 54 70 29 38 - - -
28/11:33am - - - - - SE 57 76 31 41 - - -
28/11:30am - - - - - SE 59 76 32 41 - - -
28/11:00am - - - - - SE 59 72 32 39 - - -
28/10:30am - - - - - SE 69 87 37 47 - - -
28/10:16am - - - - - SE 65 83 35 45 - - -
28/10:00am - - - - - SE 63 80 34 43 - - -
28/09:53am - - - - - SE 59 78 32 42 - - -
28/09:30am - - - - - SE 54 69 29 37 - - -
28/09:00am - - - - - SE 48 59 26 32 - - -
28/08:47am - - - - - SE 48 67 26 36 - - -
28/08:30am - - - - - SE 52 69 28 37 - - -
28/08:00am - - - - - SE 50 65 27 35 - - -
28/07:30am - - - - - SE 56 69 30 37 - - -
28/07:00am - - - - - SE 59 76 32 41 - - -
28/06:30am - - - - - SE 59 70 32 38 - - -
28/06:00am - - - - - SE 50 61 27 33 - - -
28/05:30am - - - - - SE 44 54 24 29 - - -
28/05:00am - - - - - SE 35 48 19 26 - - -
28/04:30am - - - - - SE 33 44 18 24 - - -
28/04:00am - - - - - SE 30 41 16 22 - - -
28/03:30am - - - - - SSE 30 39 16 21 - - -
28/03:00am - - - - - SSE 37 50 20 27 - - -
28/02:30am - - - - - SSE 35 44 19 24 - - -
28/02:00am - - - - - SSE 37 52 20 28 - - -
28/01:30am - - - - - SSE 43 56 23 30 - - -
28/01:00am - - - - - SSE 41 56 22 30 - - -
28/12:30am - - - - - SSE 41 50 22 27 - - -
28/12:00am - - - - - SSE 46 57 25 31 - - -
 
Date/Time
CDT
Temp
°C
App
Temp
°C
Dew
Point
Rel
Hum
%
Delta-T
°C
Wind Press
QNH
hPa
Press
MSL
hPa
Rain
since 9 am
mm
Dir
 
Spd
km/h
Gust
km/h
Spd
kts
Gust
kts
27/11:30pm - - - - - SSE 43 50 23 27 - - -
27/11:00pm - - - - - SSE 50 59 27 32 - - -
27/10:30pm - - - - - SSE 44 50 24 27 - - -
27/10:00pm - - - - - SSE 44 54 24 29 - - -
27/09:30pm - - - - - SSE 46 57 25 31 - - -
27/09:00pm - - - - - SSE 50 61 27 33 - - -
27/08:30pm - - - - - SSE 44 57 24 31 - - -
27/08:00pm - - - - - SSE 52 63 28 34 - - -
27/07:30pm - - - - - SSE 52 65 28 35 - - -
27/07:00pm - - - - - SSE 48 61 26 33 - - -
27/06:30pm - - - - - SSE 48 57 26 31 - - -
27/06:00pm - - - - - SSE 44 59 24 32 - - -
27/05:30pm - - - - - SSE 48 57 26 31 - - -
27/05:00pm - - - - - SSE 43 54 23 29 - - -
27/04:30pm - - - - - SSE 41 54 22 29 - - -
27/04:00pm - - - - - SSE 39 50 21 27 - - -
27/03:30pm - - - - - SSE 43 52 23 28 - - -
27/03:00pm - - - - - SSE 39 48 21 26 - - -
27/02:30pm - - - - - SSE 41 50 22 27 - - -
27/02:00pm - - - - - SSE 35 43 19 23 - - -
27/01:30pm - - - - - SSE 35 43 19 23 - - -
27/01:00pm - - - - - SSE 33 43 18 23 - - -
27/12:30pm - - - - - SE 24 37 13 20 - - -
27/12:00pm - - - - - SE 28 37 15 20 - - -
27/11:30am - - - - - SE 26 35 14 19 - - -
27/11:00am - - - - - SE 26 37 14 20 - - -
27/10:30am - - - - - SE 22 33 12 18 - - -
27/10:00am - - - - - SE 26 37 14 20 - - -
27/09:30am - - - - - SE 22 33 12 18 - - -
27/09:00am - - - - - SE 26 35 14 19 - - -
27/08:30am - - - - - SE 28 33 15 18 - - -
27/08:00am - - - - - SE 26 33 14 18 - - -
27/07:30am - - - - - SE 28 37 15 20 - - -
27/07:00am - - - - - SE 28 35 15 19 - - -
27/06:30am - - - - - SE 30 37 16 20 - - -
27/06:00am - - - - - SE 26 35 14 19 - - -
27/05:30am - - - - - ESE 26 33 14 18 - - -
27/05:00am - - - - - SE 24 32 13 17 - - -
27/04:30am - - - - - SE 24 33 13 18 - - -
27/04:00am - - - - - SSE 32 37 17 20 - - -
27/03:30am - - - - - SSE 30 33 16 18 - - -
27/03:00am - - - - - SSE 32 35 17 19 - - -
27/02:30am - - - - - SSE 33 37 18 20 - - -
27/02:00am - - - - - SSE 33 39 18 21 - - -
27/01:30am - - - - - SSE 33 39 18 21 - - -
27/01:00am - - - - - SSE 35 39 19 21 - - -
27/12:30am - - - - - SSE 35 39 19 21 - - -
27/12:00am - - - - - SSE 22 28 12 15 - - -
 
Date/Time
CDT
Temp
°C
App
Temp
°C
Dew
Point
Rel
Hum
%
Delta-T
°C
Wind Press
QNH
hPa
Press
MSL
hPa
Rain
since 9 am
mm
Dir
 
Spd
km/h
Gust
km/h
Spd
kts
Gust
kts
26/11:30pm - - - - - SSE 24 32 13 17 - - -
26/11:00pm - - - - - SSE 22 30 12 16 - - -
26/10:30pm - - - - - SSE 22 26 12 14 - - -
26/10:00pm - - - - - SSE 26 33 14 18 - - -
26/09:30pm - - - - - SSE 22 28 12 15 - - -
26/09:00pm - - - - - SSE 24 32 13 17 - - -
26/08:30pm - - - - - SSE 26 32 14 17 - - -
26/08:00pm - - - - - SSE 30 39 16 21 - - -
26/07:30pm - - - - - SSE 28 35 15 19 - - -
26/07:00pm - - - - - S 28 39 15 21 - - -
26/06:30pm - - - - - SSE 30 37 16 20 - - -
26/06:00pm - - - - - SSE 30 39 16 21 - - -
26/05:30pm - - - - - SSE 32 41 17 22 - - -
26/05:00pm - - - - - SSE 30 39 16 21 - - -
26/04:30pm - - - - - SSE 30 39 16 21 - - -
26/04:00pm - - - - - SSE 35 44 19 24 - - -
26/03:30pm - - - - - SSE 33 43 18 23 - - -
26/03:00pm - - - - - S 28 43 15 23 - - -
26/02:30pm - - - - - SSE 22 39 12 21 - - -
26/02:00pm - - - - - SSE 20 30 11 16 - - -
26/01:30pm - - - - - SSE 24 28 13 15 - - -
26/01:00pm - - - - - SSE 22 28 12 15 - - -
26/12:30pm - - - - - SSE 24 32 13 17 - - -
26/12:00pm - - - - - SSE 28 33 15 18 - - -
26/11:30am - - - - - SSE 33 41 18 22 - - -
26/11:00am - - - - - SSE 28 37 15 20 - - -
26/10:30am - - - - - SSE 28 35 15 19 - - -
26/10:00am - - - - - S 30 35 16 19 - - -
26/09:30am - - - - - SSE 26 35 14 19 - - -
26/09:00am - - - - - SSE 22 30 12 16 - - -
26/08:30am - - - - - SSE 20 26 11 14 - - -
26/08:00am - - - - - SE 19 20 10 11 - - -
26/07:30am - - - - - SE 13 17 7 9 - - -
26/07:00am - - - - - SE 13 15 7 8 - - -
26/06:30am - - - - - SE 17 20 9 11 - - -
26/06:00am - - - - - SSE 24 26 13 14 - - -
26/05:30am - - - - - SSE 22 24 12 13 - - -
26/05:00am - - - - - SSE 24 28 13 15 - - -
26/04:30am - - - - - SSE 19 22 10 12 - - -
26/04:00am - - - - - S 20 26 11 14 - - -
26/03:30am - - - - - SSE 15 19 8 10 - - -
26/03:00am - - - - - SSE 17 20 9 11 - - -
26/02:30am - - - - - SSE 19 22 10 12 - - -
26/02:00am - - - - - S 19 22 10 12 - - -
26/01:30am - - - - - S 15 22 8 12 - - -
26/01:00am - - - - - SSE 11 13 6 7 - - -
26/12:30am - - - - - SSW 7 13 4 7 - - -
26/12:00am - - - - - SSE 11 15 6 8 - - -
 
Date/Time
CDT
Temp
°C
App
Temp
°C
Dew
Point
Rel
Hum
%
Delta-T
°C
Wind Press
QNH
hPa
Press
MSL
hPa
Rain
since 9 am
mm
Dir
 
Spd
km/h
Gust
km/h
Spd
kts
Gust
kts
25/11:30pm - - - - - S 9 17 5 9 - - -
25/11:00pm - - - - - S 13 15 7 8 - - -

Other Formats:

Comma delimited format used in spreadsheet applications
http://www.bom.gov.au/fwo/IDS60801/IDS60801.95679.axf

JavaScript Object Notation format (JSON) in row-major order
http://www.bom.gov.au/fwo/IDS60801/IDS60801.95679.json